Time;durP1;ratioP1;P1;durP2;ratioP2;P2;SDS_P1;SDS_P2;PMS_P1;PMS_P2;Temp;Humidity;BMP_temperature;BMP_pressure;BME280_temperature;BME280_humidity;BME280_pressure;Samples;Min_cycle;Max_cycle;Signal;HPM_P1;HPM_P2
2022/02/07 00:00:08;;;;;;;0.00;0.00;;;7.20;99.80;;;;;;6210944;28;20050;-82
2022/02/07 00:03:17;;;;;;;0.00;0.00;;;7.20;99.90;;;;;;6207113;28;20058;-81
2022/02/07 00:06:19;;;;;;;0.00;0.00;;;7.10;99.70;;;;;;6209015;28;20047;-82
2022/02/07 00:09:21;;;;;;;0.00;0.00;;;7.00;99.40;;;;;;6207945;28;20515;-82
2022/02/07 00:12:23;;;;;;;0.00;0.00;;;6.80;99.30;;;;;;6207634;28;20140;-83
2022/02/07 00:15:25;;;;;;;0.00;0.00;;;6.80;99.50;;;;;;6210952;28;20042;-83
2022/02/07 00:18:28;;;;;;;0.00;0.00;;;6.70;99.40;;;;;;6211956;28;20050;-82
2022/02/07 00:21:30;;;;;;;0.00;0.00;;;6.70;99.50;;;;;;6212505;28;20046;-81
2022/02/07 00:24:31;;;;;;;0.00;0.00;;;6.60;99.70;;;;;;6210547;28;20050;-81
2022/02/07 00:27:33;;;;;;;0.00;0.00;;;6.60;99.90;;;;;;6209474;28;20129;-81
2022/02/07 00:30:35;;;;;;;0.00;0.00;;;6.70;99.70;;;;;;6209607;28;20577;-81
2022/02/07 00:33:38;;;;;;;0.00;0.00;;;6.60;99.60;;;;;;6212320;28;20056;-82
2022/02/07 00:36:40;;;;;;;0.00;0.00;;;6.60;99.30;;;;;;6213702;28;20061;-82
2022/02/07 00:39:46;;;;;;;0.00;0.00;;;6.50;99.40;;;;;;6212937;28;20070;-82
2022/02/07 00:42:54;;;;;;;0.00;0.00;;;6.50;99.30;;;;;;6214202;28;20065;-83
2022/02/07 00:45:59;;;;;;;0.00;0.00;;;6.40;99.40;;;;;;6214933;28;20558;-83
2022/02/07 00:49:02;;;;;;;0.00;0.00;;;6.40;99.40;;;;;;6213544;28;20062;-82
2022/02/07 00:52:04;;;;;;;0.00;0.00;;;6.30;99.40;;;;;;6211839;28;20143;-82
2022/02/07 00:55:06;;;;;;;0.00;0.00;;;6.30;99.50;;;;;;6211506;28;20057;-81
2022/02/07 00:58:08;;;;;;;0.00;0.00;;;6.30;99.60;;;;;;6211586;28;20052;-81
2022/02/07 01:01:10;;;;;;;0.00;0.00;;;6.30;99.60;;;;;;6212927;28;20042;-81
2022/02/07 01:04:13;;;;;;;0.00;0.00;;;6.30;99.60;;;;;;6212077;28;20050;-82
2022/02/07 01:07:15;;;;;;;0.00;0.00;;;6.40;99.60;;;;;;6213821;28;20062;-82
2022/02/07 01:10:22;;;;;;;0.00;0.00;;;6.30;99.50;;;;;;6214020;28;20069;-82
2022/02/07 01:13:37;;;;;;;0.00;0.00;;;6.30;99.60;;;;;;6237213;23;20051;-82
2022/02/07 01:23:53;;;;;;;0.00;0.00;;;6.30;99.60;;;;;;6166342;28;19926;-86
2022/02/07 01:54:26;;;;;;;0.00;0.00;;;6.50;99.60;;;;;;6111097;28;20052;-85
2022/02/07 01:57:27;;;;;;;0.00;0.00;;;6.60;99.60;;;;;;6192220;28;20066;-86
2022/02/07 02:00:29;;;;;;;0.00;0.00;;;6.60;99.50;;;;;;6190180;28;20051;-84
2022/02/07 02:03:31;;;;;;;0.00;0.00;;;6.70;99.40;;;;;;6188592;28;20057;-86
2022/02/07 02:06:34;;;;;;;0.00;0.00;;;6.70;99.30;;;;;;6192415;28;20081;-86
2022/02/07 02:09:37;;;;;;;0.00;0.00;;;6.60;99.30;;;;;;6185301;28;20050;-86
2022/02/07 02:12:50;;;;;;;0.00;0.00;;;6.50;98.80;;;;;;6184415;28;20447;-86
2022/02/07 02:15:59;;;;;;;0.00;0.00;;;6.40;98.90;;;;;;6182491;28;20481;-85
2022/02/07 02:19:41;;;;;;;0.00;0.00;;;6.40;99.00;;;;;;6182367;28;20053;-86
2022/02/07 02:32:36;;;;;;;0.00;0.00;;;6.30;98.70;;;;;;6183367;28;20050;-85
2022/02/07 02:33:44;;;;;;;1.55;0.28;;;6.20;99.20;;;;;;6180451;28;20058;-85
2022/02/07 02:36:56;;;;;;;3.73;0.50;;;6.30;99.50;;;;;;6179402;28;20129;-86
2022/02/07 02:46:38;;;;;;;4.28;1.10;;;6.30;99.10;;;;;;6178503;28;20046;-86
2022/02/07 02:49:46;;;;;;;2.17;0.50;;;6.40;99.00;;;;;;6179358;28;20051;-86
2022/02/07 02:52:48;;;;;;;3.22;0.57;;;6.40;98.90;;;;;;6180220;28;20043;-85
2022/02/07 02:55:52;;;;;;;2.95;0.63;;;6.30;98.60;;;;;;6179618;28;20046;-86
2022/02/07 02:58:54;;;;;;;8.25;1.52;;;6.30;98.60;;;;;;6178987;28;20181;-85
2022/02/07 03:01:55;;;;;;;2.97;0.32;;;6.30;98.80;;;;;;6179012;28;20132;-85
2022/02/07 03:04:57;;;;;;;4.90;0.57;;;6.30;98.70;;;;;;6178805;28;20469;-85
2022/02/07 03:07:59;;;;;;;3.42;0.55;;;6.30;98.60;;;;;;6184919;28;20054;-86
2022/02/07 03:11:05;;;;;;;3.20;0.40;;;6.30;98.50;;;;;;6186744;28;20046;-86
2022/02/07 03:14:08;;;;;;;2.28;0.40;;;6.30;98.70;;;;;;6184918;28;20050;-85
2022/02/07 03:17:10;;;;;;;5.10;0.65;;;6.40;98.70;;;;;;6182002;28;20185;-84
2022/02/07 03:20:13;;;;;;;0.85;0.38;;;6.40;98.60;;;;;;6180626;28;20051;-85
2022/02/07 03:23:15;;;;;;;0.90;0.35;;;6.40;98.00;;;;;;6180769;28;20050;-85
2022/02/07 03:26:19;;;;;;;4.13;0.68;;;6.40;98.30;;;;;;6180523;28;20047;-86
2022/02/07 03:29:21;;;;;;;3.92;0.70;;;6.50;98.20;;;;;;6182395;28;20178;-85
2022/02/07 03:32:23;;;;;;;3.35;0.82;;;6.60;98.30;;;;;;6188013;28;20094;-84
2022/02/07 03:35:25;;;;;;;7.57;2.00;;;6.60;98.00;;;;;;6184483;28;20416;-85
2022/02/07 03:38:27;;;;;;;4.60;1.15;;;6.70;98.10;;;;;;6178921;28;20043;-86
2022/02/07 03:41:30;;;;;;;3.20;0.20;;;6.70;97.90;;;;;;6178923;28;20073;-85
2022/02/07 03:44:32;;;;;;;3.50;0.30;;;6.60;97.40;;;;;;6179874;28;20058;-85
2022/02/07 03:47:34;;;;;;;4.50;0.20;;;6.30;96.70;;;;;;6178747;28;20509;-85
2022/02/07 03:50:36;;;;;;;1.08;0.20;;;6.10;96.90;;;;;;6179461;28;20047;-85
2022/02/07 03:53:38;;;;;;;3.10;0.40;;;5.90;97.20;;;;;;6178985;28;20050;-85
2022/02/07 03:56:41;;;;;;;3.47;0.70;;;5.80;97.30;;;;;;6178181;28;20134;-86
2022/02/07 03:59:43;;;;;;;0.50;0.20;;;5.60;97.50;;;;;;6178122;28;20070;-85
2022/02/07 04:02:49;;;;;;;0.60;0.20;;;5.60;97.80;;;;;;6179005;28;20178;-86
2022/02/07 04:05:54;;;;;;;2.10;0.52;;;5.50;98.00;;;;;;6180366;28;20130;-85
2022/02/07 04:09:01;;;;;;;2.95;0.30;;;5.50;98.00;;;;;;6181062;28;20057;-85
2022/02/07 04:12:15;;;;;;;1.20;0.90;;;5.50;98.00;;;;;;6178124;28;20054;-84
2022/02/07 04:15:19;;;;;;;1.90;0.40;;;5.40;98.20;;;;;;6177268;28;20394;-83
2022/02/07 04:18:21;;;;;;;0.20;0.10;;;5.40;98.10;;;;;;6177120;28;20129;-84
2022/02/07 04:21:23;;;;;;;4.13;0.68;;;5.20;97.70;;;;;;6177708;28;20043;-83
2022/02/07 04:24:25;;;;;;;1.00;0.20;;;5.10;97.60;;;;;;6177539;28;20175;-85
2022/02/07 04:27:28;;;;;;;4.70;0.40;;;4.90;97.50;;;;;;6176429;28;20061;-84
2022/02/07 04:30:30;;;;;;;1.63;0.25;;;4.70;97.60;;;;;;6177259;28;20051;-84
2022/02/07 04:33:32;;;;;;;1.27;0.60;;;4.50;97.70;;;;;;6178691;28;20133;-84
2022/02/07 04:36:34;;;;;;;3.53;0.63;;;4.40;97.70;;;;;;6177703;28;20073;-83
2022/02/07 04:39:36;;;;;;;8.60;1.65;;;4.30;97.80;;;;;;6178680;28;20051;-85
2022/02/07 04:42:39;;;;;;;4.18;0.57;;;4.10;97.80;;;;;;6178179;28;20047;-84
2022/02/07 04:45:54;;;;;;;3.13;0.38;;;4.00;97.70;;;;;;6177095;28;20051;-83
2022/02/07 04:49:14;;;;;;;2.38;0.55;;;3.90;97.80;;;;;;6178552;28;20047;-84
2022/02/07 04:52:36;;;;;;;9.25;0.77;;;3.80;98.00;;;;;;6179409;28;20060;-84
2022/02/07 04:55:43;;;;;;;7.18;0.70;;;3.80;98.20;;;;;;6176904;28;20058;-84
2022/02/07 04:58:58;;;;;;;2.58;0.52;;;3.70;98.20;;;;;;6175789;28;20047;-85
2022/02/07 05:02:08;;;;;;;2.88;0.40;;;3.80;98.50;;;;;;6181822;28;20043;-85
2022/02/07 05:05:22;;;;;;;4.22;0.88;;;3.70;98.70;;;;;;6184815;28;20439;-84
2022/02/07 05:15:04;;;;;;;6.40;0.88;;;3.80;98.60;;;;;;6187134;28;20046;-85
2022/02/07 05:18:07;;;;;;;0.98;0.45;;;3.80;98.50;;;;;;6189286;28;20047;-85
2022/02/07 05:21:09;;;;;;;6.97;0.80;;;3.80;98.50;;;;;;6185880;28;20074;-85
2022/02/07 05:24:10;;;;;;;2.70;0.80;;;3.70;98.50;;;;;;6185607;28;20111;-85
2022/02/07 05:27:12;;;;;;;2.35;0.68;;;3.70;98.40;;;;;;6185564;28;20051;-85
2022/02/07 05:30:15;;;;;;;4.40;0.90;;;3.70;98.30;;;;;;6184890;28;20051;-85
2022/02/07 05:33:17;;;;;;;1.30;0.45;;;3.70;98.20;;;;;;6184704;28;20101;-85
2022/02/07 05:36:20;;;;;;;3.97;0.60;;;3.70;98.30;;;;;;6184176;28;20046;-85
2022/02/07 05:39:21;;;;;;;7.63;1.15;;;3.60;98.20;;;;;;6183663;28;20540;-83
2022/02/07 05:42:23;;;;;;;3.67;0.70;;;3.60;98.20;;;;;;6184171;28;20043;-85
2022/02/07 05:45:27;;;;;;;2.17;0.63;;;3.60;98.20;;;;;;6183777;28;20074;-85
2022/02/07 05:48:28;;;;;;;5.00;0.50;;;3.50;98.20;;;;;;6183970;28;20066;-84
2022/02/07 05:51:30;;;;;;;9.23;0.70;;;3.50;98.10;;;;;;6183186;28;20047;-85
2022/02/07 05:54:32;;;;;;;3.70;0.45;;;3.40;98.10;;;;;;6183260;28;20048;-83
2022/02/07 05:57:34;;;;;;;3.03;0.57;;;3.40;98.10;;;;;;6183030;28;20061;-84
2022/02/07 06:00:38;;;;;;;3.85;0.80;;;3.40;98.10;;;;;;6183597;28;20057;-85
2022/02/07 06:03:39;;;;;;;9.07;1.02;;;3.30;98.10;;;;;;6182559;28;20043;-85
2022/02/07 06:06:41;;;;;;;7.80;1.17;;;3.40;98.40;;;;;;6182361;28;20055;-84
2022/02/07 06:09:43;;;;;;;5.25;0.70;;;3.50;98.50;;;;;;6181852;28;20051;-84
2022/02/07 06:12:46;;;;;;;9.63;1.13;;;3.50;98.20;;;;;;6182021;28;20050;-83
2022/02/07 06:15:49;;;;;;;12.52;1.77;;;3.50;98.00;;;;;;6181765;28;20054;-84
2022/02/07 06:18:52;;;;;;;4.00;1.05;;;3.50;98.00;;;;;;6181493;28;20199;-84
2022/02/07 06:21:55;;;;;;;6.15;0.57;;;3.50;98.00;;;;;;6181103;28;20504;-84
2022/02/07 06:24:58;;;;;;;3.05;0.70;;;3.50;97.90;;;;;;6182078;28;20095;-83
2022/02/07 06:27:59;;;;;;;1.92;0.73;;;3.50;98.00;;;;;;6180725;28;20066;-83
2022/02/07 06:31:03;;;;;;;10.38;1.23;;;3.50;98.00;;;;;;6180802;28;20062;-82
2022/02/07 06:34:04;;;;;;;5.75;0.93;;;3.40;98.00;;;;;;6179881;28;20046;-83
2022/02/07 06:37:07;;;;;;;3.13;1.02;;;3.40;97.90;;;;;;6180180;28;20563;-84
2022/02/07 06:40:09;;;;;;;5.82;1.25;;;3.40;97.90;;;;;;6181274;28;20540;-85
2022/02/07 06:43:11;;;;;;;8.80;1.15;;;3.30;97.90;;;;;;6181181;28;20123;-84
2022/02/07 06:46:14;;;;;;;10.05;1.15;;;3.40;98.00;;;;;;6179882;28;20051;-84
2022/02/07 06:49:16;;;;;;;13.00;1.77;;;3.40;97.90;;;;;;6180778;28;20050;-84
2022/02/07 06:52:18;;;;;;;5.00;1.98;;;3.40;98.00;;;;;;6181055;28;20570;-85
2022/02/07 06:55:20;;;;;;;6.43;1.02;;;3.40;98.00;;;;;;6179008;28;20536;-85
2022/02/07 06:58:22;;;;;;;4.03;1.65;;;3.40;98.00;;;;;;6179646;28;20050;-83
2022/02/07 07:01:25;;;;;;;6.90;1.27;;;3.40;98.10;;;;;;6180055;28;20124;-84
2022/02/07 07:04:28;;;;;;;3.08;1.15;;;3.40;98.30;;;;;;6180364;28;20055;-82
2022/02/07 07:07:30;;;;;;;6.35;1.33;;;3.60;98.60;;;;;;6179615;28;20513;-85
2022/02/07 07:10:32;;;;;;;3.15;1.02;;;3.80;98.60;;;;;;6180334;28;20051;-86
2022/02/07 07:13:41;;;;;;;10.57;1.55;;;4.00;98.50;;;;;;6178509;28;20047;-86
2022/02/07 07:16:54;;;;;;;9.77;1.65;;;4.00;98.20;;;;;;6193307;23;20503;-78
2022/02/07 07:20:01;;;;;;;16.02;3.70;;;4.20;98.10;;;;;;6153410;29;20408;-79
2022/02/07 07:23:03;;;;;;;3.63;1.42;;;4.30;98.30;;;;;;6152621;28;20073;-79
2022/02/07 07:26:06;;;;;;;6.40;1.35;;;4.40;98.30;;;;;;6152714;29;20058;-79
2022/02/07 07:29:11;;;;;;;6.95;2.00;;;4.50;97.90;;;;;;6151251;29;20059;-80
2022/02/07 07:32:19;;;;;;;10.48;2.53;;;4.50;97.80;;;;;;6151460;29;20059;-79
2022/02/07 07:35:21;;;;;;;8.75;1.15;;;4.50;97.60;;;;;;6151315;29;20126;-78
2022/02/07 07:38:23;;;;;;;6.38;1.10;;;4.50;97.60;;;;;;6151309;29;20198;-79
2022/02/07 07:41:26;;;;;;;6.40;2.13;;;4.60;97.60;;;;;;6151107;29;20413;-79
2022/02/07 07:44:33;;;;;;;4.03;0.90;;;4.60;97.60;;;;;;6152152;29;20051;-79
2022/02/07 07:47:36;;;;;;;6.78;1.08;;;4.70;97.70;;;;;;6151609;29;20058;-80
2022/02/07 07:50:45;;;;;;;3.63;1.02;;;4.80;97.70;;;;;;6151406;29;20479;-79
2022/02/07 07:54:10;;;;;;;10.40;1.33;;;4.90;97.60;;;;;;6151136;29;20048;-80
2022/02/07 08:03:50;;;;;;;8.32;1.70;;;5.20;97.60;;;;;;6150268;29;20047;-80
2022/02/07 08:06:59;;;;;;;5.78;1.05;;;5.40;97.50;;;;;;6151731;29;20126;-80
2022/02/07 08:13:18;;;;;;;6.63;0.90;;;5.50;97.20;;;;;;6150483;29;20393;-80
2022/02/07 08:16:20;;;;;;;3.47;0.98;;;5.60;97.20;;;;;;6152516;29;20160;-80
2022/02/07 08:19:25;;;;;;;3.20;0.80;;;5.70;97.30;;;;;;6153326;28;20062;-80
2022/02/07 08:22:27;;;;;;;3.75;1.60;;;5.80;97.40;;;;;;6152295;29;20071;-79
2022/02/07 08:25:29;;;;;;;2.35;0.80;;;6.00;97.10;;;;;;6152449;28;20061;-80
2022/02/07 08:28:31;;;;;;;6.78;1.35;;;6.20;97.20;;;;;;6152460;29;20080;-80
2022/02/07 08:31:32;;;;;;;2.95;0.93;;;6.30;96.90;;;;;;6152191;29;20051;-79
2022/02/07 08:34:35;;;;;;;9.50;1.75;;;6.30;96.80;;;;;;6152579;28;20525;-78
2022/02/07 08:37:37;;;;;;;4.15;0.85;;;6.40;96.40;;;;;;6156615;29;20048;-79
2022/02/07 08:40:39;;;;;;;9.35;1.30;;;6.40;96.20;;;;;;6157559;29;20122;-80
2022/02/07 08:43:41;;;;;;;6.97;1.55;;;6.50;96.60;;;;;;6157333;28;20413;-78
2022/02/07 08:46:43;;;;;;;3.80;1.08;;;6.40;96.00;;;;;;6157406;29;20050;-78
2022/02/07 08:49:46;;;;;;;4.82;1.33;;;6.40;95.90;;;;;;6157583;28;20129;-80
2022/02/07 08:52:50;;;;;;;7.20;1.20;;;6.30;95.80;;;;;;6158622;29;20058;-78
2022/02/07 08:55:53;;;;;;;3.25;1.90;;;6.30;95.60;;;;;;6158045;29;20051;-78
2022/02/07 08:58:55;;;;;;;8.40;1.33;;;6.20;95.50;;;;;;6157798;28;20142;-78
2022/02/07 09:02:12;;;;;;;10.43;1.38;;;6.20;95.60;;;;;;6158634;29;20074;-81
2022/02/07 09:05:35;;;;;;;6.97;1.88;;;6.30;95.50;;;;;;6157329;28;20107;-78
2022/02/07 09:11:54;;;;;;;15.32;1.38;;;6.80;96.10;;;;;;6158106;29;20058;-78
2022/02/07 09:15:00;;;;;;;10.68;1.75;;;7.40;95.90;;;;;;6160231;28;20051;-79
2022/02/07 09:18:05;;;;;;;7.68;1.65;;;7.50;94.80;;;;;;6159494;29;20044;-78
2022/02/07 09:21:09;;;;;;;8.93;1.30;;;7.60;94.80;;;;;;6159972;28;20055;-79
2022/02/07 09:24:11;;;;;;;14.43;1.13;;;7.70;94.20;;;;;;6158809;29;20047;-78
2022/02/07 09:27:12;;;;;;;4.07;1.27;;;7.60;93.70;;;;;;6155521;29;20055;-81
2022/02/07 09:30:14;;;;;;;7.50;0.88;;;7.50;94.30;;;;;;6158938;29;20125;-77
2022/02/07 09:33:16;;;;;;;7.70;1.20;;;7.70;94.20;;;;;;6158327;29;20055;-77
2022/02/07 09:36:19;;;;;;;6.60;1.23;;;8.00;93.80;;;;;;6157433;29;20047;-78
2022/02/07 09:39:24;;;;;;;6.45;1.55;;;8.30;94.00;;;;;;6155634;29;20496;-78
2022/02/07 09:42:26;;;;;;;4.53;0.95;;;8.50;93.10;;;;;;6155218;29;20134;-79
2022/02/07 09:45:32;;;;;;;8.20;1.55;;;8.60;93.00;;;;;;6158401;29;20130;-79
2022/02/07 09:48:35;;;;;;;13.27;2.00;;;8.90;92.90;;;;;;6158342;28;20402;-80
2022/02/07 09:51:42;;;;;;;4.43;1.15;;;9.20;93.00;;;;;;6158648;29;20070;-79
2022/02/07 09:54:44;;;;;;;14.00;1.58;;;9.60;91.90;;;;;;6158537;29;20047;-81
2022/02/07 09:57:50;;;;;;;8.32;2.08;;;9.70;91.30;;;;;;6162967;29;20051;-80
2022/02/07 10:00:57;;;;;;;8.43;1.20;;;9.60;91.20;;;;;;6163674;29;20118;-80
2022/02/07 10:04:01;;;;;;;4.43;1.08;;;9.50;91.20;;;;;;6161551;29;20059;-79
2022/02/07 10:07:17;;;;;;;5.63;1.42;;;9.50;91.40;;;;;;6179420;28;20054;-79
2022/02/07 10:10:27;;;;;;;11.13;1.27;;;9.70;91.50;;;;;;6184637;28;20097;-80
2022/02/07 10:13:41;;;;;;;10.05;2.40;;;9.80;90.70;;;;;;6199870;28;20407;-81
2022/02/07 10:16:51;;;;;;;8.77;1.25;;;9.90;90.60;;;;;;6184213;28;20050;-80
2022/02/07 10:20:11;;;;;;;7.88;1.83;;;9.80;89.20;;;;;;6182932;28;20050;-81
2022/02/07 10:37:39;;;;;;;8.98;1.88;;;10.00;88.60;;;;;;6183112;28;20046;-79
2022/02/07 10:40:25;;;;;;;5.15;1.00;;;10.50;89.30;;;;;;6187546;28;20042;-80
2022/02/07 10:43:44;;;;;;;10.63;0.85;;;10.90;89.20;;;;;;6201306;28;20071;-80
2022/02/07 10:46:53;;;;;;;21.95;2.33;;;11.00;86.40;;;;;;6208222;28;20042;-80
2022/02/07 10:50:00;;;;;;;7.20;1.40;;;10.90;85.50;;;;;;6208595;28;20050;-80
2022/02/07 10:53:01;;;;;;;2.30;0.68;;;11.30;86.50;;;;;;6207571;28;20054;-82
2022/02/07 10:56:06;;;;;;;5.97;1.30;;;11.70;82.70;;;;;;6209191;28;20056;-80
2022/02/07 10:59:10;;;;;;;12.98;1.65;;;11.70;77.40;;;;;;6207165;28;20633;-80
2022/02/07 11:05:33;;;;;;;2.15;0.52;;;11.50;73.10;;;;;;6190256;28;20053;-82
2022/02/07 11:08:46;;;;;;;5.53;1.73;;;11.20;70.90;;;;;;6208781;28;20093;-80
2022/02/07 11:15:19;;;;;;;11.02;2.17;;;10.40;68.80;;;;;;6207538;28;20058;-82
2022/02/07 11:18:53;;;;;;;7.32;1.00;;;10.10;71.60;;;;;;6208191;28;20463;-82
2022/02/07 11:22:11;;;;;;;10.48;0.95;;;9.80;70.70;;;;;;6202553;28;20511;-81
2022/02/07 11:25:26;;;;;;;10.23;1.08;;;9.50;71.70;;;;;;6201418;28;20057;-81
2022/02/07 11:28:39;;;;;;;7.05;3.35;;;9.20;72.00;;;;;;6202670;28;20057;-80
2022/02/07 11:31:42;;;;;;;8.27;1.17;;;8.90;72.50;;;;;;6203200;28;20042;-79
2022/02/07 11:34:50;;;;;;;2.70;0.80;;;8.70;73.20;;;;;;6202463;28;20042;-81
2022/02/07 11:38:10;;;;;;;5.95;1.58;;;8.50;74.30;;;;;;6201939;28;20050;-80
2022/02/07 11:41:12;;;;;;;6.55;1.20;;;8.50;75.80;;;;;;6193083;28;20049;-81
2022/02/07 11:44:15;;;;;;;5.53;1.70;;;8.50;76.70;;;;;;6201413;28;20104;-81
2022/02/07 11:47:18;;;;;;;7.60;1.17;;;8.50;76.80;;;;;;6201437;28;20043;-80
2022/02/07 11:50:22;;;;;;;13.13;2.33;;;8.40;77.60;;;;;;6201792;28;20050;-81
2022/02/07 11:53:31;;;;;;;7.43;1.10;;;8.40;76.10;;;;;;6201558;28;20399;-80
2022/02/07 11:56:40;;;;;;;10.05;1.38;;;8.40;76.50;;;;;;6202171;28;20126;-79
2022/02/07 11:59:57;;;;;;;6.72;0.90;;;8.30;77.00;;;;;;6202195;28;20057;-81
2022/02/07 12:03:04;;;;;;;8.15;2.05;;;8.30;78.40;;;;;;6201959;28;20197;-80
2022/02/07 12:06:07;;;;;;;3.03;0.88;;;8.40;78.30;;;;;;6200868;28;20156;-80
2022/02/07 12:09:21;;;;;;;9.43;0.95;;;8.40;76.90;;;;;;6199506;28;20057;-81
2022/02/07 12:12:44;;;;;;;11.00;1.10;;;8.30;77.30;;;;;;6197293;28;20089;-81
2022/02/07 12:15:52;;;;;;;6.53;1.20;;;8.40;78.10;;;;;;6194296;28;20042;-83
2022/02/07 12:19:11;;;;;;;4.35;1.10;;;8.50;77.70;;;;;;6180710;28;20463;-81
2022/02/07 12:22:15;;;;;;;6.75;1.45;;;8.50;78.20;;;;;;6160070;28;20051;-82
2022/02/07 12:25:23;;;;;;;7.30;1.77;;;8.60;79.80;;;;;;6161479;28;20114;-81
2022/02/07 12:28:31;;;;;;;5.95;1.60;;;8.60;76.80;;;;;;6176553;28;20042;-81
2022/02/07 12:31:40;;;;;;;7.53;1.30;;;8.60;76.30;;;;;;6185219;28;20424;-84
2022/02/07 12:34:42;;;;;;;12.15;2.25;;;8.60;77.70;;;;;;6188173;28;20166;-80
2022/02/07 12:37:43;;;;;;;10.82;1.40;;;8.60;78.60;;;;;;6182778;28;20121;-81
2022/02/07 12:40:45;;;;;;;10.98;1.58;;;8.60;76.60;;;;;;6186058;28;20054;-82
2022/02/07 12:43:50;;;;;;;10.90;1.38;;;8.60;76.40;;;;;;6199992;28;20732;-81
2022/02/07 12:46:55;;;;;;;9.98;1.20;;;8.60;77.20;;;;;;6209879;28;20054;-81
2022/02/07 12:50:07;;;;;;;8.43;1.58;;;8.60;76.80;;;;;;6206689;28;20050;-81
2022/02/07 12:53:09;;;;;;;4.85;1.27;;;8.60;76.90;;;;;;6207753;28;20050;-82
2022/02/07 12:56:11;;;;;;;15.55;1.60;;;8.60;75.90;;;;;;6208084;28;20065;-81
2022/02/07 12:59:13;;;;;;;9.48;2.90;;;8.50;75.50;;;;;;6213549;28;20047;-84
2022/02/07 13:02:26;;;;;;;18.13;4.30;;;8.40;77.00;;;;;;6210131;28;20508;-81
2022/02/07 13:05:27;;;;;;;7.97;1.13;;;8.40;76.70;;;;;;6210866;28;20054;-81
2022/02/07 13:08:29;;;;;;;8.77;2.70;;;8.40;77.00;;;;;;6211636;28;20156;-79
2022/02/07 13:11:34;;;;;;;11.82;2.33;;;8.40;76.50;;;;;;6203523;28;20129;-81
2022/02/07 13:14:38;;;;;;;3.83;1.00;;;8.30;76.00;;;;;;6210307;28;20038;-82
2022/02/07 13:17:41;;;;;;;8.20;1.77;;;8.30;76.80;;;;;;6226998;23;20050;-81
2022/02/07 13:20:44;;;;;;;12.13;1.75;;;8.30;75.70;;;;;;6186810;28;20058;-82
2022/02/07 13:23:47;;;;;;;7.47;1.48;;;8.40;76.10;;;;;;6187894;28;20054;-81
2022/02/07 13:26:50;;;;;;;7.97;1.35;;;8.50;76.40;;;;;;6185158;28;20047;-82
2022/02/07 13:29:57;;;;;;;7.50;1.25;;;8.50;76.60;;;;;;6185318;28;20051;-83
2022/02/07 13:33:00;;;;;;;6.07;1.17;;;8.60;78.30;;;;;;6185721;28;20058;-81
2022/02/07 13:36:01;;;;;;;8.93;1.58;;;8.70;75.00;;;;;;6208750;28;20393;-82
2022/02/07 13:39:06;;;;;;;11.70;1.48;;;8.60;75.60;;;;;;6179257;28;20075;-82
2022/02/07 13:42:10;;;;;;;8.35;1.35;;;8.60;74.70;;;;;;6181996;28;20046;-83
2022/02/07 13:45:16;;;;;;;16.15;2.65;;;8.50;74.50;;;;;;6206469;28;20182;-82
2022/02/07 13:48:21;;;;;;;12.35;2.17;;;8.60;76.40;;;;;;6184372;28;20047;-81
2022/02/07 13:51:23;;;;;;;3.83;1.17;;;8.70;77.20;;;;;;6184198;28;20050;-83
2022/02/07 13:54:29;;;;;;;7.30;1.48;;;8.80;76.10;;;;;;6195589;28;20500;-82
2022/02/07 13:57:31;;;;;;;5.63;1.85;;;8.90;76.70;;;;;;6203848;28;20124;-80
2022/02/07 14:00:35;;;;;;;5.97;1.52;;;8.90;75.20;;;;;;6185269;28;20061;-82
2022/02/07 14:03:43;;;;;;;6.78;0.90;;;8.90;76.30;;;;;;6184594;28;20071;-82
2022/02/07 14:07:04;;;;;;;5.88;3.03;;;9.00;74.40;;;;;;6199050;28;20096;-82
2022/02/07 14:10:17;;;;;;;7.93;1.25;;;8.90;73.80;;;;;;6199197;28;20042;-82
2022/02/07 14:13:19;;;;;;;8.15;1.50;;;8.90;74.10;;;;;;6180179;28;20054;-82
2022/02/07 14:16:23;;;;;;;6.82;1.15;;;9.00;74.80;;;;;;6209571;28;20046;-82
2022/02/07 14:19:43;;;;;;;5.95;1.45;;;9.10;73.00;;;;;;6190149;28;20134;-82
2022/02/07 14:22:45;;;;;;;5.90;1.40;;;9.00;73.80;;;;;;6185191;28;20046;-82
2022/02/07 14:25:50;;;;;;;15.98;6.55;;;9.00;73.50;;;;;;6191906;28;20108;-81
2022/02/07 14:28:53;;;;;;;11.82;2.95;;;8.90;72.50;;;;;;6191971;28;20420;-82
2022/02/07 14:31:55;;;;;;;11.68;2.10;;;8.90;72.20;;;;;;6187401;28;20441;-80
2022/02/07 14:34:58;;;;;;;4.35;1.63;;;8.80;71.50;;;;;;6202932;28;20038;-81
2022/02/07 14:38:03;;;;;;;62.88;21.98;;;8.70;71.10;;;;;;6199701;28;20046;-82
2022/02/07 14:41:08;;;;;;;9.45;1.42;;;8.70;72.90;;;;;;6180900;28;20074;-81
2022/02/07 14:44:18;;;;;;;5.15;1.23;;;8.70;72.40;;;;;;6182142;28;20428;-81
2022/02/07 14:47:40;;;;;;;6.85;1.42;;;8.80;71.60;;;;;;6184045;28;20578;-82
2022/02/07 14:50:44;;;;;;;6.53;1.15;;;8.80;71.70;;;;;;6186681;28;20063;-82
2022/02/07 14:53:45;;;;;;;2.92;1.05;;;8.80;73.80;;;;;;6186409;28;20449;-82
2022/02/07 14:56:47;;;;;;;2.00;0.63;;;8.80;72.10;;;;;;6185861;28;20046;-81
2022/02/07 14:59:49;;;;;;;8.95;2.35;;;8.80;71.30;;;;;;6183825;28;20047;-81
2022/02/07 15:02:51;;;;;;;3.90;1.05;;;8.70;71.20;;;;;;6183917;28;20055;-82
2022/02/07 15:05:56;;;;;;;4.38;0.77;;;8.80;72.30;;;;;;6183410;28;20398;-81
2022/02/07 15:08:57;;;;;;;6.53;1.77;;;8.80;72.50;;;;;;6184241;28;20061;-82
2022/02/07 15:12:00;;;;;;;6.47;1.75;;;8.90;73.30;;;;;;6173707;28;20110;-80
2022/02/07 15:15:04;;;;;;;6.20;1.55;;;8.90;73.50;;;;;;6176839;28;20042;-81
2022/02/07 15:18:07;;;;;;;8.43;1.00;;;8.90;72.40;;;;;;6182237;28;20090;-81
2022/02/07 15:21:10;;;;;;;7.90;1.65;;;8.90;71.80;;;;;;6180391;28;20054;-81
2022/02/07 15:24:12;;;;;;;6.35;1.63;;;8.80;72.30;;;;;;6181160;28;20129;-83
2022/02/07 15:27:13;;;;;;;5.28;1.38;;;8.80;72.10;;;;;;6179779;28;20138;-80
2022/02/07 15:30:16;;;;;;;3.40;0.95;;;8.70;71.40;;;;;;6181783;28;20050;-80
2022/02/07 15:33:19;;;;;;;3.65;1.30;;;8.70;72.40;;;;;;6180390;28;20129;-82
2022/02/07 15:36:24;;;;;;;5.95;1.38;;;8.60;71.00;;;;;;6181736;28;20133;-85
2022/02/07 15:39:26;;;;;;;5.57;1.05;;;8.60;70.40;;;;;;6183325;28;20066;-82
2022/02/07 15:42:28;;;;;;;7.97;1.25;;;8.50;71.40;;;;;;6177366;28;20137;-82
2022/02/07 15:45:32;;;;;;;6.07;1.55;;;8.50;71.40;;;;;;6157467;29;20043;-82
2022/02/07 15:48:35;;;;;;;14.90;1.63;;;8.40;71.10;;;;;;6159593;29;20065;-82
2022/02/07 15:51:38;;;;;;;3.67;0.70;;;8.40;71.10;;;;;;6160844;29;20107;-82
2022/02/07 15:54:42;;;;;;;4.72;1.20;;;8.30;71.90;;;;;;6158333;28;20075;-82
2022/02/07 15:57:45;;;;;;;5.60;1.33;;;8.30;72.20;;;;;;6165450;28;20055;-82
2022/02/07 16:00:47;;;;;;;7.68;2.17;;;8.30;72.10;;;;;;6182914;28;20143;-82
2022/02/07 16:03:48;;;;;;;7.35;1.83;;;8.30;71.00;;;;;;6159785;28;20142;-84
2022/02/07 16:06:52;;;;;;;8.30;1.35;;;8.30;70.70;;;;;;6158689;28;20574;-84
2022/02/07 16:09:55;;;;;;;5.20;1.33;;;8.10;70.60;;;;;;6166618;28;20500;-85
2022/02/07 16:13:02;;;;;;;9.45;1.40;;;8.00;71.30;;;;;;6180208;28;20051;-84
2022/02/07 16:16:09;;;;;;;5.40;1.40;;;7.80;71.50;;;;;;6206526;28;20043;-82
2022/02/07 16:19:11;;;;;;;4.67;1.37;;;7.70;71.90;;;;;;6185822;28;20109;-81
2022/02/07 16:22:15;;;;;;;7.38;1.17;;;7.60;72.50;;;;;;6180318;28;20086;-83
2022/02/07 16:25:17;;;;;;;8.27;1.63;;;7.60;72.30;;;;;;6181383;28;20101;-81
2022/02/07 16:28:19;;;;;;;6.15;1.30;;;7.50;72.60;;;;;;6180127;28;20055;-82
2022/02/07 16:31:20;;;;;;;11.68;1.88;;;7.50;73.30;;;;;;6181444;28;20051;-82
2022/02/07 16:34:23;;;;;;;7.55;2.20;;;7.40;73.00;;;;;;6179206;28;20058;-83
2022/02/07 16:37:26;;;;;;;8.07;1.77;;;7.30;74.40;;;;;;6179372;28;20075;-82
2022/02/07 16:40:28;;;;;;;8.95;1.20;;;7.20;74.90;;;;;;6180226;28;20166;-84
2022/02/07 16:43:35;;;;;;;9.80;1.70;;;7.10;73.90;;;;;;6177647;28;20118;-82
2022/02/07 16:46:48;;;;;;;5.07;1.80;;;7.00;74.50;;;;;;6178606;28;20073;-81
2022/02/07 16:49:51;;;;;;;9.13;1.70;;;6.90;74.60;;;;;;6179031;28;20536;-83
2022/02/07 16:52:54;;;;;;;8.27;3.25;;;6.80;74.10;;;;;;6179253;28;20050;-82
2022/02/07 16:55:55;;;;;;;9.98;3.58;;;6.70;74.90;;;;;;6204120;28;20097;-82
2022/02/07 16:58:58;;;;;;;17.42;7.65;;;6.70;75.80;;;;;;6219216;28;20054;-84
2022/02/07 17:02:00;;;;;;;9.48;3.55;;;6.60;75.30;;;;;;6225331;28;20046;-85
2022/02/07 17:05:02;;;;;;;6.75;2.03;;;6.60;75.30;;;;;;6223493;28;20082;-84
2022/02/07 17:08:05;;;;;;;5.60;1.52;;;6.50;75.50;;;;;;6221616;28;20559;-85
2022/02/07 17:11:08;;;;;;;10.77;1.65;;;6.50;75.20;;;;;;6216464;28;20062;-86
2022/02/07 17:14:10;;;;;;;9.02;1.15;;;6.50;75.50;;;;;;6213350;28;20058;-84
2022/02/07 17:17:12;;;;;;;10.82;1.63;;;6.40;75.10;;;;;;6211391;28;20046;-83
2022/02/07 17:20:16;;;;;;;3.88;1.58;;;6.40;76.40;;;;;;6211086;28;20077;-83
2022/02/07 17:23:22;;;;;;;18.38;2.58;;;6.30;76.90;;;;;;6211292;28;20042;-85
2022/02/07 17:26:24;;;;;;;6.57;1.48;;;6.30;76.50;;;;;;6209208;28;20046;-84
2022/02/07 17:29:26;;;;;;;9.27;1.50;;;6.20;76.80;;;;;;6210226;28;20046;-83
2022/02/07 17:32:28;;;;;;;10.48;2.25;;;6.10;77.40;;;;;;6208737;28;20056;-84
2022/02/07 17:35:30;;;;;;;9.68;2.15;;;6.00;77.80;;;;;;6210257;28;20073;-84
2022/02/07 17:38:34;;;;;;;8.20;1.13;;;5.90;78.00;;;;;;6208510;28;20178;-85
2022/02/07 17:41:36;;;;;;;6.65;1.55;;;5.80;78.00;;;;;;6209032;28;20050;-85